createdAt,value
2019-01-23T00:05:14.736Z,99245.84
2019-01-23T00:15:16.771Z,99237.99
2019-01-23T00:25:18.727Z,99232.58
2019-01-23T00:35:20.681Z,99228.38
2019-01-23T00:45:22.637Z,99223.70
2019-01-23T00:55:24.833Z,99211.23
2019-01-23T01:05:27.030Z,99208.47
2019-01-23T01:15:29.272Z,99209.92
2019-01-23T01:25:31.229Z,99203.23
2019-01-23T01:35:33.187Z,99192.28
2019-01-23T01:45:35.373Z,99186.83
2019-01-23T01:55:37.349Z,99185.36
2019-01-23T02:05:39.611Z,99171.00
2019-01-23T02:15:41.740Z,99157.19
2019-01-23T02:25:43.821Z,99150.88
2019-01-23T02:35:45.801Z,99132.85
2019-01-23T02:45:47.744Z,99126.34
2019-01-23T02:55:49.735Z,99114.03
2019-01-23T03:05:51.725Z,99110.36
2019-01-23T03:15:54.664Z,99107.75
2019-01-23T03:25:56.625Z,99104.36
2019-01-23T03:35:58.535Z,99096.04
2019-01-23T03:46:00.596Z,99100.27
2019-01-23T03:56:02.984Z,99112.91
2019-01-23T04:06:05.469Z,99103.94
2019-01-23T04:16:07.430Z,99090.70
2019-01-23T04:26:09.668Z,99086.80
2019-01-23T04:36:11.737Z,99075.39
2019-01-23T04:46:13.709Z,99065.92
2019-01-23T04:56:15.939Z,99062.34
2019-01-23T05:06:17.989Z,99057.13
2019-01-23T05:16:19.927Z,99050.69
2019-01-23T05:26:21.902Z,99046.90
2019-01-23T05:36:26.198Z,99047.06
2019-01-23T05:46:28.144Z,99045.55
2019-01-23T05:56:32.069Z,99041.41
2019-01-23T06:06:34.175Z,99037.58
2019-01-23T06:16:36.314Z,99038.85
2019-01-23T06:26:39.852Z,99050.46
2019-01-23T06:36:41.819Z,99047.11
2019-01-23T06:46:43.780Z,99052.17
2019-01-23T06:56:45.814Z,99054.25
2019-01-23T07:06:49.014Z,99056.65
2019-01-23T07:16:51.288Z,99057.91
2019-01-23T07:26:53.345Z,99045.96
2019-01-23T07:36:55.295Z,99044.41
2019-01-23T07:46:57.356Z,99043.59
2019-01-23T07:56:59.351Z,99033.61
2019-01-23T08:07:01.330Z,99038.12
2019-01-23T08:17:04.600Z,99031.78
2019-01-23T08:27:07.125Z,99034.22
2019-01-23T08:37:09.305Z,99024.69
2019-01-23T08:47:11.354Z,99016.11
2019-01-23T08:57:13.556Z,99011.35
2019-01-23T09:07:15.657Z,99023.84
2019-01-23T09:17:17.744Z,99019.45
2019-01-23T09:27:19.729Z,99017.69
2019-01-23T09:37:38.202Z,99014.88
2019-01-23T09:48:09.069Z,99010.74
2019-01-23T09:58:11.271Z,99008.34
2019-01-23T10:08:13.361Z,99009.42
2019-01-23T10:18:15.354Z,99008.30
2019-01-23T10:28:17.331Z,99008.79
2019-01-23T10:38:20.814Z,99002.56
2019-01-23T10:48:22.978Z,98996.34
2019-01-23T10:58:25.244Z,98996.16
2019-01-23T11:08:27.247Z,98988.05
2019-01-23T11:18:29.321Z,98979.84
2019-01-23T11:28:31.268Z,98977.45
2019-01-23T11:38:33.234Z,98976.50
2019-01-23T11:48:35.307Z,98963.28
2019-01-23T11:58:37.496Z,98965.42
2019-01-23T12:08:41.615Z,98963.25
2019-01-23T12:18:43.687Z,98979.73
2019-01-23T12:28:46.846Z,98973.02
2019-01-23T12:38:48.847Z,98978.15
2019-01-23T12:48:50.842Z,98973.43
2019-01-23T12:58:52.852Z,98977.15
2019-01-23T13:08:54.870Z,98984.26
2019-01-23T13:18:56.837Z,98987.07
2019-01-23T13:29:00.294Z,98983.69
2019-01-23T13:39:04.498Z,98989.51
2019-01-23T13:49:06.459Z,98993.00
2019-01-23T13:59:09.331Z,99001.97
2019-01-23T14:09:11.697Z,99004.58
2019-01-23T14:19:13.759Z,99007.05
2019-01-23T14:29:15.695Z,99016.34
2019-01-23T14:39:18.055Z,99022.59
2019-01-23T14:49:20.006Z,99032.69
2019-01-23T14:59:22.154Z,99032.77
2019-01-23T15:09:24.317Z,99040.45
2019-01-23T15:19:26.488Z,99044.71
2019-01-23T15:29:28.476Z,99058.89
2019-01-23T15:39:35.674Z,99062.48
2019-01-23T15:49:37.652Z,99074.80
2019-01-23T15:59:39.616Z,99092.36
2019-01-23T16:09:41.610Z,99114.98
2019-01-23T16:19:43.567Z,99115.61
2019-01-23T16:29:45.539Z,99119.59
2019-01-23T16:39:47.978Z,99126.41
2019-01-23T16:49:50.318Z,99144.42
2019-01-23T16:59:52.514Z,99165.73
2019-01-23T17:09:54.779Z,99178.67
2019-01-23T17:19:59.109Z,99182.55
2019-01-23T17:30:00.906Z,99196.46
2019-01-23T17:40:05.017Z,99202.81
2019-01-23T17:50:10.026Z,99208.06
2019-01-23T18:00:16.910Z,99237.01
2019-01-23T18:10:19.077Z,99247.22
2019-01-23T18:20:24.183Z,99261.20
2019-01-23T18:30:35.881Z,99276.83
2019-01-23T18:41:24.906Z,99279.80
2019-01-23T18:52:01.846Z,99299.28
2019-01-23T19:02:04.128Z,99304.07
2019-01-23T19:12:06.270Z,99314.78
2019-01-23T19:22:09.133Z,99326.73
2019-01-23T19:42:13.283Z,99338.45
2019-01-23T19:52:15.409Z,99343.36
2019-01-23T20:02:17.672Z,99362.59
2019-01-23T20:12:19.636Z,99370.98
2019-01-23T20:22:21.714Z,99369.14
2019-01-23T20:32:23.665Z,99388.91
2019-01-23T20:42:25.811Z,99408.00
2019-01-23T20:52:27.746Z,99404.56
2019-01-23T21:02:29.860Z,99404.88
2019-01-23T21:12:31.941Z,99412.53
2019-01-23T21:22:36.118Z,99415.44
2019-01-23T21:32:38.062Z,99416.38
2019-01-23T21:42:40.134Z,99421.91
2019-01-23T21:52:42.705Z,99427.53
2019-01-23T22:02:44.838Z,99431.27
2019-01-23T22:12:47.016Z,99437.63
2019-01-23T22:22:49.279Z,99452.13
2019-01-23T22:32:51.429Z,99455.13
2019-01-23T22:42:53.442Z,99461.38
2019-01-23T22:52:55.630Z,99482.06
2019-01-23T23:02:57.812Z,99482.17
2019-01-23T23:12:59.864Z,99486.56
2019-01-23T23:23:02.013Z,99484.77
2019-01-23T23:33:04.223Z,99491.99
2019-01-23T23:43:06.251Z,99494.03
2019-01-23T23:53:08.321Z,99509.91
